sensor_id;sensor_type;location;lat;lon;timestamp;temperature;humidity
42743;DHT22;28397;44.552;-0.848;2023-12-07T00:00:34;6.20;99.90
42743;DHT22;28397;44.552;-0.848;2023-12-07T00:03:00;6.10;99.90
42743;DHT22;28397;44.552;-0.848;2023-12-07T00:05:26;6.00;99.90
42743;DHT22;28397;44.552;-0.848;2023-12-07T00:07:52;6.10;99.90
42743;DHT22;28397;44.552;-0.848;2023-12-07T00:10:18;6.30;99.90
42743;DHT22;28397;44.552;-0.848;2023-12-07T00:12:43;6.50;99.90
42743;DHT22;28397;44.552;-0.848;2023-12-07T00:15:09;6.60;99.90
42743;DHT22;28397;44.552;-0.848;2023-12-07T00:17:35;6.70;99.90
42743;DHT22;28397;44.552;-0.848;2023-12-07T00:20:00;6.70;99.90
42743;DHT22;28397;44.552;-0.848;2023-12-07T00:22:26;6.80;99.90
42743;DHT22;28397;44.552;-0.848;2023-12-07T00:24:53;6.90;99.90
42743;DHT22;28397;44.552;-0.848;2023-12-07T00:27:19;6.80;99.90
42743;DHT22;28397;44.552;-0.848;2023-12-07T00:29:45;6.80;99.90
42743;DHT22;28397;44.552;-0.848;2023-12-07T00:32:10;6.70;99.90
42743;DHT22;28397;44.552;-0.848;2023-12-07T00:34:36;6.80;99.90
42743;DHT22;28397;44.552;-0.848;2023-12-07T00:37:02;6.60;99.90
42743;DHT22;28397;44.552;-0.848;2023-12-07T00:39:28;6.50;99.90
42743;DHT22;28397;44.552;-0.848;2023-12-07T00:41:54;6.40;99.90
42743;DHT22;28397;44.552;-0.848;2023-12-07T00:44:20;6.30;99.90
42743;DHT22;28397;44.552;-0.848;2023-12-07T00:46:45;6.20;99.90
42743;DHT22;28397;44.552;-0.848;2023-12-07T00:49:11;6.10;99.90
42743;DHT22;28397;44.552;-0.848;2023-12-07T00:51:37;6.20;99.90
42743;DHT22;28397;44.552;-0.848;2023-12-07T00:54:03;6.10;99.90
42743;DHT22;28397;44.552;-0.848;2023-12-07T00:56:29;6.10;99.90
42743;DHT22;28397;44.552;-0.848;2023-12-07T00:58:55;6.10;99.90
42743;DHT22;28397;44.552;-0.848;2023-12-07T01:01:20;6.00;99.90
42743;DHT22;28397;44.552;-0.848;2023-12-07T01:03:46;6.00;99.90
42743;DHT22;28397;44.552;-0.848;2023-12-07T01:06:12;5.90;99.90
42743;DHT22;28397;44.552;-0.848;2023-12-07T01:08:37;5.90;99.90
42743;DHT22;28397;44.552;-0.848;2023-12-07T01:11:06;5.90;99.90
42743;DHT22;28397;44.552;-0.848;2023-12-07T01:13:32;5.80;99.90
42743;DHT22;28397;44.552;-0.848;2023-12-07T01:15:57;5.90;99.90
42743;DHT22;28397;44.552;-0.848;2023-12-07T01:18:23;5.90;99.90
42743;DHT22;28397;44.552;-0.848;2023-12-07T01:20:49;5.90;99.90
42743;DHT22;28397;44.552;-0.848;2023-12-07T01:23:15;5.90;99.90
42743;DHT22;28397;44.552;-0.848;2023-12-07T01:25:40;5.90;99.90
42743;DHT22;28397;44.552;-0.848;2023-12-07T01:28:06;5.80;99.90
42743;DHT22;28397;44.552;-0.848;2023-12-07T01:30:31;5.80;99.90
42743;DHT22;28397;44.552;-0.848;2023-12-07T01:32:57;5.80;99.90
42743;DHT22;28397;44.552;-0.848;2023-12-07T01:35:23;5.80;99.90
42743;DHT22;28397;44.552;-0.848;2023-12-07T01:37:48;5.70;99.90
42743;DHT22;28397;44.552;-0.848;2023-12-07T01:40:14;5.70;99.90
42743;DHT22;28397;44.552;-0.848;2023-12-07T01:42:42;5.80;99.90
42743;DHT22;28397;44.552;-0.848;2023-12-07T01:45:14;5.80;99.90
42743;DHT22;28397;44.552;-0.848;2023-12-07T01:47:40;5.80;99.90
42743;DHT22;28397;44.552;-0.848;2023-12-07T01:50:07;5.80;99.90
42743;DHT22;28397;44.552;-0.848;2023-12-07T01:52:36;5.80;99.90
42743;DHT22;28397;44.552;-0.848;2023-12-07T01:55:03;5.80;99.90
42743;DHT22;28397;44.552;-0.848;2023-12-07T01:57:29;5.80;99.90
42743;DHT22;28397;44.552;-0.848;2023-12-07T01:59:55;5.70;99.90
42743;DHT22;28397;44.552;-0.848;2023-12-07T02:02:21;5.70;99.90
42743;DHT22;28397;44.552;-0.848;2023-12-07T02:04:47;5.70;99.90
42743;DHT22;28397;44.552;-0.848;2023-12-07T02:07:13;5.80;99.90
42743;DHT22;28397;44.552;-0.848;2023-12-07T02:09:38;5.80;99.90
42743;DHT22;28397;44.552;-0.848;2023-12-07T02:12:04;6.00;99.90
42743;DHT22;28397;44.552;-0.848;2023-12-07T02:14:30;6.20;99.90
42743;DHT22;28397;44.552;-0.848;2023-12-07T02:17:18;6.30;99.90
42743;DHT22;28397;44.552;-0.848;2023-12-07T02:22:55;6.40;99.90
42743;DHT22;28397;44.552;-0.848;2023-12-07T02:25:28;6.50;99.90
42743;DHT22;28397;44.552;-0.848;2023-12-07T02:27:54;6.50;99.90
42743;DHT22;28397;44.552;-0.848;2023-12-07T02:30:20;6.50;99.90
42743;DHT22;28397;44.552;-0.848;2023-12-07T02:32:46;6.50;99.90
42743;DHT22;28397;44.552;-0.848;2023-12-07T02:35:12;6.50;99.90
42743;DHT22;28397;44.552;-0.848;2023-12-07T02:37:49;6.50;99.90
42743;DHT22;28397;44.552;-0.848;2023-12-07T02:40:18;6.20;99.90
42743;DHT22;28397;44.552;-0.848;2023-12-07T02:42:45;6.20;99.90
42743;DHT22;28397;44.552;-0.848;2023-12-07T02:45:12;6.10;99.90
42743;DHT22;28397;44.552;-0.848;2023-12-07T02:47:38;6.00;99.90
42743;DHT22;28397;44.552;-0.848;2023-12-07T02:50:06;5.90;99.90
42743;DHT22;28397;44.552;-0.848;2023-12-07T02:52:32;5.90;99.90
42743;DHT22;28397;44.552;-0.848;2023-12-07T02:54:57;5.80;99.90
42743;DHT22;28397;44.552;-0.848;2023-12-07T02:57:23;5.80;99.90
42743;DHT22;28397;44.552;-0.848;2023-12-07T02:59:49;5.80;99.90
42743;DHT22;28397;44.552;-0.848;2023-12-07T03:02:14;5.70;99.90
42743;DHT22;28397;44.552;-0.848;2023-12-07T03:04:40;5.80;99.90
42743;DHT22;28397;44.552;-0.848;2023-12-07T03:07:06;5.80;99.90
42743;DHT22;28397;44.552;-0.848;2023-12-07T03:09:31;5.70;99.90
42743;DHT22;28397;44.552;-0.848;2023-12-07T03:11:57;5.70;99.90
42743;DHT22;28397;44.552;-0.848;2023-12-07T03:14:23;5.70;99.90
42743;DHT22;28397;44.552;-0.848;2023-12-07T03:16:49;5.70;99.90
42743;DHT22;28397;44.552;-0.848;2023-12-07T03:19:14;5.70;99.90
42743;DHT22;28397;44.552;-0.848;2023-12-07T03:21:41;5.70;99.90
42743;DHT22;28397;44.552;-0.848;2023-12-07T03:24:08;5.70;99.90
42743;DHT22;28397;44.552;-0.848;2023-12-07T03:26:34;5.70;99.90
42743;DHT22;28397;44.552;-0.848;2023-12-07T03:29:00;5.70;99.90
42743;DHT22;28397;44.552;-0.848;2023-12-07T03:31:27;5.70;99.90
42743;DHT22;28397;44.552;-0.848;2023-12-07T03:33:53;5.60;99.90
42743;DHT22;28397;44.552;-0.848;2023-12-07T03:36:19;5.60;99.90
42743;DHT22;28397;44.552;-0.848;2023-12-07T03:38:44;5.70;99.90
42743;DHT22;28397;44.552;-0.848;2023-12-07T03:41:10;5.60;99.90
42743;DHT22;28397;44.552;-0.848;2023-12-07T03:43:36;5.60;99.90
42743;DHT22;28397;44.552;-0.848;2023-12-07T03:46:05;5.60;99.90
42743;DHT22;28397;44.552;-0.848;2023-12-07T03:48:31;5.60;99.90
42743;DHT22;28397;44.552;-0.848;2023-12-07T03:50:57;5.60;99.90
42743;DHT22;28397;44.552;-0.848;2023-12-07T03:53:24;5.60;99.90
42743;DHT22;28397;44.552;-0.848;2023-12-07T03:55:50;5.70;99.90
42743;DHT22;28397;44.552;-0.848;2023-12-07T03:58:15;5.60;99.90
42743;DHT22;28397;44.552;-0.848;2023-12-07T04:00:41;5.60;99.90
42743;DHT22;28397;44.552;-0.848;2023-12-07T04:03:07;5.60;99.90
42743;DHT22;28397;44.552;-0.848;2023-12-07T04:05:33;5.60;99.90
42743;DHT22;28397;44.552;-0.848;2023-12-07T04:07:59;5.50;99.90
42743;DHT22;28397;44.552;-0.848;2023-12-07T04:10:25;5.50;99.90
42743;DHT22;28397;44.552;-0.848;2023-12-07T04:12:51;5.70;99.90
42743;DHT22;28397;44.552;-0.848;2023-12-07T04:15:19;5.90;99.90
42743;DHT22;28397;44.552;-0.848;2023-12-07T04:17:46;6.10;99.90
42743;DHT22;28397;44.552;-0.848;2023-12-07T04:20:12;6.10;99.90
42743;DHT22;28397;44.552;-0.848;2023-12-07T04:22:38;6.30;99.90
42743;DHT22;28397;44.552;-0.848;2023-12-07T04:25:05;6.40;99.90
42743;DHT22;28397;44.552;-0.848;2023-12-07T04:27:31;6.40;99.90
42743;DHT22;28397;44.552;-0.848;2023-12-07T04:29:57;6.50;99.90
42743;DHT22;28397;44.552;-0.848;2023-12-07T04:32:23;6.50;99.90
42743;DHT22;28397;44.552;-0.848;2023-12-07T04:34:49;6.50;99.90
42743;DHT22;28397;44.552;-0.848;2023-12-07T04:37:15;6.50;99.90
42743;DHT22;28397;44.552;-0.848;2023-12-07T04:39:40;6.40;99.90
42743;DHT22;28397;44.552;-0.848;2023-12-07T04:42:06;6.30;99.90
42743;DHT22;28397;44.552;-0.848;2023-12-07T04:44:32;6.20;99.90
42743;DHT22;28397;44.552;-0.848;2023-12-07T04:46:57;6.10;99.90
42743;DHT22;28397;44.552;-0.848;2023-12-07T04:49:23;6.00;99.90
42743;DHT22;28397;44.552;-0.848;2023-12-07T04:51:49;6.00;99.90
42743;DHT22;28397;44.552;-0.848;2023-12-07T04:54:14;5.80;99.90
42743;DHT22;28397;44.552;-0.848;2023-12-07T04:56:41;5.80;99.90
42743;DHT22;28397;44.552;-0.848;2023-12-07T04:59:07;5.80;99.90
42743;DHT22;28397;44.552;-0.848;2023-12-07T05:01:35;5.80;99.90
42743;DHT22;28397;44.552;-0.848;2023-12-07T05:04:01;5.80;99.90
42743;DHT22;28397;44.552;-0.848;2023-12-07T05:06:29;5.70;99.90
42743;DHT22;28397;44.552;-0.848;2023-12-07T05:08:55;5.70;99.90
42743;DHT22;28397;44.552;-0.848;2023-12-07T05:11:20;5.70;99.90
42743;DHT22;28397;44.552;-0.848;2023-12-07T05:13:46;5.70;99.90
42743;DHT22;28397;44.552;-0.848;2023-12-07T05:16:13;5.70;99.90
42743;DHT22;28397;44.552;-0.848;2023-12-07T05:18:39;5.70;99.90
42743;DHT22;28397;44.552;-0.848;2023-12-07T05:21:05;5.70;99.90
42743;DHT22;28397;44.552;-0.848;2023-12-07T05:23:31;5.70;99.90
42743;DHT22;28397;44.552;-0.848;2023-12-07T05:25:57;5.70;99.90
42743;DHT22;28397;44.552;-0.848;2023-12-07T05:28:22;5.60;99.90
42743;DHT22;28397;44.552;-0.848;2023-12-07T05:30:48;5.60;99.90
42743;DHT22;28397;44.552;-0.848;2023-12-07T05:33:15;5.60;99.90
42743;DHT22;28397;44.552;-0.848;2023-12-07T05:35:41;5.60;99.90
42743;DHT22;28397;44.552;-0.848;2023-12-07T05:38:07;5.70;99.90
42743;DHT22;28397;44.552;-0.848;2023-12-07T05:40:33;5.60;99.90
42743;DHT22;28397;44.552;-0.848;2023-12-07T05:42:59;5.60;99.90
42743;DHT22;28397;44.552;-0.848;2023-12-07T05:45:25;5.60;99.90
42743;DHT22;28397;44.552;-0.848;2023-12-07T05:47:51;5.60;99.90
42743;DHT22;28397;44.552;-0.848;2023-12-07T05:50:17;5.60;99.90
42743;DHT22;28397;44.552;-0.848;2023-12-07T05:52:43;5.60;99.90
42743;DHT22;28397;44.552;-0.848;2023-12-07T05:55:09;5.60;99.90
42743;DHT22;28397;44.552;-0.848;2023-12-07T05:57:35;5.60;99.90
42743;DHT22;28397;44.552;-0.848;2023-12-07T06:00:01;5.50;99.90
42743;DHT22;28397;44.552;-0.848;2023-12-07T06:02:27;5.60;99.90
42743;DHT22;28397;44.552;-0.848;2023-12-07T06:04:53;5.60;99.90
42743;DHT22;28397;44.552;-0.848;2023-12-07T06:07:19;5.50;99.90
42743;DHT22;28397;44.552;-0.848;2023-12-07T06:09:44;5.60;99.90
42743;DHT22;28397;44.552;-0.848;2023-12-07T06:12:10;5.60;99.90
42743;DHT22;28397;44.552;-0.848;2023-12-07T06:14:35;5.60;99.90
42743;DHT22;28397;44.552;-0.848;2023-12-07T06:17:01;5.70;99.90
42743;DHT22;28397;44.552;-0.848;2023-12-07T06:19:27;5.90;99.90
42743;DHT22;28397;44.552;-0.848;2023-12-07T06:21:53;6.10;99.90
42743;DHT22;28397;44.552;-0.848;2023-12-07T06:24:18;6.30;99.90
42743;DHT22;28397;44.552;-0.848;2023-12-07T06:26:44;6.30;99.90
42743;DHT22;28397;44.552;-0.848;2023-12-07T06:29:09;6.30;99.90
42743;DHT22;28397;44.552;-0.848;2023-12-07T06:31:35;6.40;99.90
42743;DHT22;28397;44.552;-0.848;2023-12-07T06:34:01;6.40;99.90
42743;DHT22;28397;44.552;-0.848;2023-12-07T06:36:27;6.40;99.90
42743;DHT22;28397;44.552;-0.848;2023-12-07T06:38:53;6.40;99.90
42743;DHT22;28397;44.552;-0.848;2023-12-07T06:41:20;6.40;99.90
42743;DHT22;28397;44.552;-0.848;2023-12-07T06:43:46;6.30;99.90
42743;DHT22;28397;44.552;-0.848;2023-12-07T06:46:12;6.20;99.90
42743;DHT22;28397;44.552;-0.848;2023-12-07T06:48:39;6.10;99.90
42743;DHT22;28397;44.552;-0.848;2023-12-07T06:51:04;6.10;99.90
42743;DHT22;28397;44.552;-0.848;2023-12-07T06:53:30;5.90;99.90
42743;DHT22;28397;44.552;-0.848;2023-12-07T06:55:57;5.90;99.90
42743;DHT22;28397;44.552;-0.848;2023-12-07T06:58:23;5.90;99.90
42743;DHT22;28397;44.552;-0.848;2023-12-07T07:00:49;5.90;99.90
42743;DHT22;28397;44.552;-0.848;2023-12-07T07:03:15;5.90;99.90
42743;DHT22;28397;44.552;-0.848;2023-12-07T07:05:42;5.80;99.90
42743;DHT22;28397;44.552;-0.848;2023-12-07T07:08:08;5.80;99.90
42743;DHT22;28397;44.552;-0.848;2023-12-07T07:10:34;5.90;99.90
42743;DHT22;28397;44.552;-0.848;2023-12-07T07:13:00;5.80;99.90
42743;DHT22;28397;44.552;-0.848;2023-12-07T07:15:31;5.90;99.90
42743;DHT22;28397;44.552;-0.848;2023-12-07T07:17:57;5.90;99.90
42743;DHT22;28397;44.552;-0.848;2023-12-07T07:20:23;5.90;99.90
42743;DHT22;28397;44.552;-0.848;2023-12-07T07:22:48;5.80;99.90
42743;DHT22;28397;44.552;-0.848;2023-12-07T07:25:14;5.80;99.90
42743;DHT22;28397;44.552;-0.848;2023-12-07T07:27:42;5.90;99.90
42743;DHT22;28397;44.552;-0.848;2023-12-07T07:30:08;5.90;99.90
42743;DHT22;28397;44.552;-0.848;2023-12-07T07:32:34;5.90;99.90
42743;DHT22;28397;44.552;-0.848;2023-12-07T07:35:00;5.90;99.90
42743;DHT22;28397;44.552;-0.848;2023-12-07T07:37:26;5.90;99.90
42743;DHT22;28397;44.552;-0.848;2023-12-07T07:39:52;5.90;99.90
42743;DHT22;28397;44.552;-0.848;2023-12-07T07:42:17;5.90;99.90
42743;DHT22;28397;44.552;-0.848;2023-12-07T07:44:43;5.90;99.90
42743;DHT22;28397;44.552;-0.848;2023-12-07T07:47:08;6.00;99.90
42743;DHT22;28397;44.552;-0.848;2023-12-07T07:49:34;6.00;99.90
42743;DHT22;28397;44.552;-0.848;2023-12-07T07:52:00;6.10;99.90
42743;DHT22;28397;44.552;-0.848;2023-12-07T07:54:26;6.10;99.90
42743;DHT22;28397;44.552;-0.848;2023-12-07T07:56:54;6.00;99.90
42743;DHT22;28397;44.552;-0.848;2023-12-07T07:59:20;6.10;99.90
42743;DHT22;28397;44.552;-0.848;2023-12-07T08:01:46;6.10;99.90
42743;DHT22;28397;44.552;-0.848;2023-12-07T08:04:15;6.10;99.90
42743;DHT22;28397;44.552;-0.848;2023-12-07T08:06:41;6.10;99.90
42743;DHT22;28397;44.552;-0.848;2023-12-07T08:09:08;6.10;99.90
42743;DHT22;28397;44.552;-0.848;2023-12-07T08:11:34;6.10;99.90
42743;DHT22;28397;44.552;-0.848;2023-12-07T08:14:00;6.10;99.90
42743;DHT22;28397;44.552;-0.848;2023-12-07T08:16:25;6.20;99.90
42743;DHT22;28397;44.552;-0.848;2023-12-07T08:18:53;6.20;99.90
42743;DHT22;28397;44.552;-0.848;2023-12-07T08:21:22;6.20;99.90
42743;DHT22;28397;44.552;-0.848;2023-12-07T08:23:48;6.40;99.90
42743;DHT22;28397;44.552;-0.848;2023-12-07T08:26:14;6.70;99.90
42743;DHT22;28397;44.552;-0.848;2023-12-07T08:28:43;6.80;99.90
42743;DHT22;28397;44.552;-0.848;2023-12-07T08:31:10;6.90;99.90
42743;DHT22;28397;44.552;-0.848;2023-12-07T08:33:35;7.10;99.90
42743;DHT22;28397;44.552;-0.848;2023-12-07T08:36:03;7.30;99.90
42743;DHT22;28397;44.552;-0.848;2023-12-07T08:38:29;7.30;99.90
42743;DHT22;28397;44.552;-0.848;2023-12-07T08:40:54;7.40;99.90
42743;DHT22;28397;44.552;-0.848;2023-12-07T08:43:22;7.30;99.90
42743;DHT22;28397;44.552;-0.848;2023-12-07T08:45:51;7.30;99.90
42743;DHT22;28397;44.552;-0.848;2023-12-07T08:48:17;7.30;99.90
42743;DHT22;28397;44.552;-0.848;2023-12-07T08:50:43;7.20;99.90
42743;DHT22;28397;44.552;-0.848;2023-12-07T08:53:09;7.20;99.90
42743;DHT22;28397;44.552;-0.848;2023-12-07T08:55:34;7.10;99.90
42743;DHT22;28397;44.552;-0.848;2023-12-07T08:58:00;7.00;99.90
42743;DHT22;28397;44.552;-0.848;2023-12-07T09:00:26;7.00;99.90
42743;DHT22;28397;44.552;-0.848;2023-12-07T09:02:52;7.00;99.90
42743;DHT22;28397;44.552;-0.848;2023-12-07T09:05:18;7.00;99.90
42743;DHT22;28397;44.552;-0.848;2023-12-07T09:07:44;7.00;99.90
42743;DHT22;28397;44.552;-0.848;2023-12-07T09:10:10;6.90;99.90
42743;DHT22;28397;44.552;-0.848;2023-12-07T09:12:36;6.90;99.90
42743;DHT22;28397;44.552;-0.848;2023-12-07T09:15:05;7.00;99.90
42743;DHT22;28397;44.552;-0.848;2023-12-07T09:17:32;7.00;99.90
42743;DHT22;28397;44.552;-0.848;2023-12-07T09:19:58;7.00;99.90
42743;DHT22;28397;44.552;-0.848;2023-12-07T09:22:24;7.10;99.90
42743;DHT22;28397;44.552;-0.848;2023-12-07T09:24:50;7.10;99.90
42743;DHT22;28397;44.552;-0.848;2023-12-07T09:27:16;7.00;99.90
42743;DHT22;28397;44.552;-0.848;2023-12-07T09:29:42;7.10;99.90
42743;DHT22;28397;44.552;-0.848;2023-12-07T09:32:08;7.10;99.90
42743;DHT22;28397;44.552;-0.848;2023-12-07T09:34:33;7.10;99.90
42743;DHT22;28397;44.552;-0.848;2023-12-07T09:37:17;7.10;99.90
42743;DHT22;28397;44.552;-0.848;2023-12-07T09:39:43;7.20;99.90
42743;DHT22;28397;44.552;-0.848;2023-12-07T09:42:08;7.20;99.90
42743;DHT22;28397;44.552;-0.848;2023-12-07T09:44:34;7.30;99.90
42743;DHT22;28397;44.552;-0.848;2023-12-07T09:47:00;7.30;99.90
42743;DHT22;28397;44.552;-0.848;2023-12-07T09:49:26;7.30;99.90
42743;DHT22;28397;44.552;-0.848;2023-12-07T09:51:52;7.40;99.90
42743;DHT22;28397;44.552;-0.848;2023-12-07T09:54:20;7.40;99.90
42743;DHT22;28397;44.552;-0.848;2023-12-07T09:56:47;7.40;99.90
42743;DHT22;28397;44.552;-0.848;2023-12-07T09:59:13;7.40;99.90
42743;DHT22;28397;44.552;-0.848;2023-12-07T10:01:38;7.50;99.90
42743;DHT22;28397;44.552;-0.848;2023-12-07T10:04:23;7.60;99.90
42743;DHT22;28397;44.552;-0.848;2023-12-07T10:06:52;7.60;99.90
42743;DHT22;28397;44.552;-0.848;2023-12-07T10:09:19;7.70;99.90
42743;DHT22;28397;44.552;-0.848;2023-12-07T10:11:47;7.80;99.90
42743;DHT22;28397;44.552;-0.848;2023-12-07T10:14:13;7.80;99.90
42743;DHT22;28397;44.552;-0.848;2023-12-07T10:16:52;7.90;99.90
42743;DHT22;28397;44.552;-0.848;2023-12-07T10:19:19;8.00;99.90
42743;DHT22;28397;44.552;-0.848;2023-12-07T10:21:53;8.00;99.90
42743;DHT22;28397;44.552;-0.848;2023-12-07T10:24:21;8.10;99.90
42743;DHT22;28397;44.552;-0.848;2023-12-07T10:26:49;8.20;99.90
42743;DHT22;28397;44.552;-0.848;2023-12-07T10:29:17;8.40;99.90
42743;DHT22;28397;44.552;-0.848;2023-12-07T10:31:44;8.60;99.90
42743;DHT22;28397;44.552;-0.848;2023-12-07T10:34:10;8.70;99.90
42743;DHT22;28397;44.552;-0.848;2023-12-07T10:36:35;8.80;99.90
42743;DHT22;28397;44.552;-0.848;2023-12-07T10:39:01;8.90;99.90
42743;DHT22;28397;44.552;-0.848;2023-12-07T10:41:33;9.00;99.90
42743;DHT22;28397;44.552;-0.848;2023-12-07T10:44:01;9.10;99.90
42743;DHT22;28397;44.552;-0.848;2023-12-07T10:46:31;9.10;99.90
42743;DHT22;28397;44.552;-0.848;2023-12-07T10:49:00;9.20;99.90
42743;DHT22;28397;44.552;-0.848;2023-12-07T10:51:40;9.20;99.90
42743;DHT22;28397;44.552;-0.848;2023-12-07T10:54:10;9.20;99.90
42743;DHT22;28397;44.552;-0.848;2023-12-07T10:56:45;9.10;99.90
42743;DHT22;28397;44.552;-0.848;2023-12-07T10:59:12;9.10;99.90
42743;DHT22;28397;44.552;-0.848;2023-12-07T11:01:42;9.00;99.90
42743;DHT22;28397;44.552;-0.848;2023-12-07T11:04:12;9.00;99.90
42743;DHT22;28397;44.552;-0.848;2023-12-07T11:06:39;8.90;99.90
42743;DHT22;28397;44.552;-0.848;2023-12-07T11:09:12;9.00;99.90
42743;DHT22;28397;44.552;-0.848;2023-12-07T11:11:50;9.00;99.90
42743;DHT22;28397;44.552;-0.848;2023-12-07T11:14:18;9.00;99.90
42743;DHT22;28397;44.552;-0.848;2023-12-07T11:16:46;9.00;99.90
42743;DHT22;28397;44.552;-0.848;2023-12-07T11:22:02;9.00;99.90
42743;DHT22;28397;44.552;-0.848;2023-12-07T11:24:28;9.00;99.90
42743;DHT22;28397;44.552;-0.848;2023-12-07T11:26:57;9.10;99.90
42743;DHT22;28397;44.552;-0.848;2023-12-07T11:29:28;9.00;99.90
42743;DHT22;28397;44.552;-0.848;2023-12-07T11:32:04;9.10;99.90
42743;DHT22;28397;44.552;-0.848;2023-12-07T11:37:04;9.10;99.90
42743;DHT22;28397;44.552;-0.848;2023-12-07T11:39:41;9.10;99.90
42743;DHT22;28397;44.552;-0.848;2023-12-07T11:42:11;9.10;99.90
42743;DHT22;28397;44.552;-0.848;2023-12-07T11:44:38;9.20;99.90
42743;DHT22;28397;44.552;-0.848;2023-12-07T11:47:05;9.20;99.90
42743;DHT22;28397;44.552;-0.848;2023-12-07T11:49:31;9.20;99.90
42743;DHT22;28397;44.552;-0.848;2023-12-07T11:52:08;9.20;99.90
42743;DHT22;28397;44.552;-0.848;2023-12-07T11:54:37;9.30;99.90
42743;DHT22;28397;44.552;-0.848;2023-12-07T11:57:03;9.30;99.90
42743;DHT22;28397;44.552;-0.848;2023-12-07T11:59:31;9.30;99.90
42743;DHT22;28397;44.552;-0.848;2023-12-07T12:01:59;9.40;99.90
42743;DHT22;28397;44.552;-0.848;2023-12-07T12:04:25;9.40;99.90
42743;DHT22;28397;44.552;-0.848;2023-12-07T12:06:50;9.50;99.90
42743;DHT22;28397;44.552;-0.848;2023-12-07T12:09:16;9.50;99.90
42743;DHT22;28397;44.552;-0.848;2023-12-07T12:11:49;9.50;99.90
42743;DHT22;28397;44.552;-0.848;2023-12-07T12:14:18;9.50;99.90
42743;DHT22;28397;44.552;-0.848;2023-12-07T12:16:46;9.50;99.90
42743;DHT22;28397;44.552;-0.848;2023-12-07T12:19:12;9.50;99.90
42743;DHT22;28397;44.552;-0.848;2023-12-07T12:21:40;9.60;99.90
42743;DHT22;28397;44.552;-0.848;2023-12-07T12:24:06;9.60;99.90
42743;DHT22;28397;44.552;-0.848;2023-12-07T12:26:36;9.80;99.90
42743;DHT22;28397;44.552;-0.848;2023-12-07T12:29:05;10.00;99.90
42743;DHT22;28397;44.552;-0.848;2023-12-07T12:31:32;10.00;99.90
42743;DHT22;28397;44.552;-0.848;2023-12-07T12:34:07;10.10;99.90
42743;DHT22;28397;44.552;-0.848;2023-12-07T12:36:37;10.10;99.90
42743;DHT22;28397;44.552;-0.848;2023-12-07T12:39:03;10.20;99.90
42743;DHT22;28397;44.552;-0.848;2023-12-07T12:41:33;10.30;99.90
42743;DHT22;28397;44.552;-0.848;2023-12-07T12:43:59;10.30;99.90
42743;DHT22;28397;44.552;-0.848;2023-12-07T12:46:25;10.30;99.90
42743;DHT22;28397;44.552;-0.848;2023-12-07T12:48:59;10.40;99.90
42743;DHT22;28397;44.552;-0.848;2023-12-07T12:51:29;10.40;99.90
42743;DHT22;28397;44.552;-0.848;2023-12-07T12:53:58;10.40;99.90
42743;DHT22;28397;44.552;-0.848;2023-12-07T12:56:26;10.30;99.90
42743;DHT22;28397;44.552;-0.848;2023-12-07T12:58:53;10.30;99.90
42743;DHT22;28397;44.552;-0.848;2023-12-07T13:01:19;10.30;99.90
42743;DHT22;28397;44.552;-0.848;2023-12-07T13:03:46;10.20;99.90
42743;DHT22;28397;44.552;-0.848;2023-12-07T13:06:16;10.20;99.90
42743;DHT22;28397;44.552;-0.848;2023-12-07T13:08:46;10.20;99.90
42743;DHT22;28397;44.552;-0.848;2023-12-07T13:11:18;10.20;99.90
42743;DHT22;28397;44.552;-0.848;2023-12-07T13:13:46;10.20;99.90
42743;DHT22;28397;44.552;-0.848;2023-12-07T13:16:16;10.10;99.90
42743;DHT22;28397;44.552;-0.848;2023-12-07T13:18:41;10.20;99.90
42743;DHT22;28397;44.552;-0.848;2023-12-07T13:21:08;10.20;99.90
42743;DHT22;28397;44.552;-0.848;2023-12-07T13:23:35;10.20;99.90
42743;DHT22;28397;44.552;-0.848;2023-12-07T13:26:01;10.20;99.90
42743;DHT22;28397;44.552;-0.848;2023-12-07T13:28:27;10.20;99.90
42743;DHT22;28397;44.552;-0.848;2023-12-07T13:30:53;10.20;99.90
42743;DHT22;28397;44.552;-0.848;2023-12-07T13:33:19;10.30;99.90
42743;DHT22;28397;44.552;-0.848;2023-12-07T13:35:45;10.30;99.90
42743;DHT22;28397;44.552;-0.848;2023-12-07T13:38:11;10.30;99.90
42743;DHT22;28397;44.552;-0.848;2023-12-07T13:40:37;10.30;99.90
42743;DHT22;28397;44.552;-0.848;2023-12-07T13:43:03;10.40;99.90
42743;DHT22;28397;44.552;-0.848;2023-12-07T13:45:28;10.40;99.90
42743;DHT22;28397;44.552;-0.848;2023-12-07T13:47:54;10.40;99.90
42743;DHT22;28397;44.552;-0.848;2023-12-07T13:50:20;10.40;99.90
42743;DHT22;28397;44.552;-0.848;2023-12-07T13:52:45;10.40;99.90
42743;DHT22;28397;44.552;-0.848;2023-12-07T13:55:11;10.40;99.90
42743;DHT22;28397;44.552;-0.848;2023-12-07T13:57:38;10.50;99.90
42743;DHT22;28397;44.552;-0.848;2023-12-07T14:00:05;10.50;99.90
42743;DHT22;28397;44.552;-0.848;2023-12-07T14:02:31;10.50;99.90
42743;DHT22;28397;44.552;-0.848;2023-12-07T14:04:56;10.50;99.90
42743;DHT22;28397;44.552;-0.848;2023-12-07T14:07:22;10.50;99.90
42743;DHT22;28397;44.552;-0.848;2023-12-07T14:09:51;10.50;99.90
42743;DHT22;28397;44.552;-0.848;2023-12-07T14:12:17;10.50;99.90
42743;DHT22;28397;44.552;-0.848;2023-12-07T14:14:44;10.50;99.90
42743;DHT22;28397;44.552;-0.848;2023-12-07T14:17:11;10.70;99.90
42743;DHT22;28397;44.552;-0.848;2023-12-07T14:19:36;10.70;99.90
42743;DHT22;28397;44.552;-0.848;2023-12-07T14:22:03;10.80;99.90
42743;DHT22;28397;44.552;-0.848;2023-12-07T14:24:29;10.80;99.90
42743;DHT22;28397;44.552;-0.848;2023-12-07T14:26:57;10.90;99.90
42743;DHT22;28397;44.552;-0.848;2023-12-07T14:29:23;10.90;99.90
42743;DHT22;28397;44.552;-0.848;2023-12-07T14:31:52;10.90;99.90
42743;DHT22;28397;44.552;-0.848;2023-12-07T14:34:18;11.00;99.90
42743;DHT22;28397;44.552;-0.848;2023-12-07T14:36:45;11.00;99.90
42743;DHT22;28397;44.552;-0.848;2023-12-07T14:39:11;11.00;99.90
42743;DHT22;28397;44.552;-0.848;2023-12-07T14:41:45;10.90;99.90
42743;DHT22;28397;44.552;-0.848;2023-12-07T14:44:18;10.90;99.90
42743;DHT22;28397;44.552;-0.848;2023-12-07T14:46:47;10.80;99.90
42743;DHT22;28397;44.552;-0.848;2023-12-07T14:49:14;10.70;99.90
42743;DHT22;28397;44.552;-0.848;2023-12-07T14:51:40;10.70;99.90
42743;DHT22;28397;44.552;-0.848;2023-12-07T14:54:06;10.60;99.90
42743;DHT22;28397;44.552;-0.848;2023-12-07T14:56:38;10.60;99.90
42743;DHT22;28397;44.552;-0.848;2023-12-07T14:59:04;10.60;99.90
42743;DHT22;28397;44.552;-0.848;2023-12-07T15:01:30;10.60;99.90
42743;DHT22;28397;44.552;-0.848;2023-12-07T15:03:56;10.60;99.90
42743;DHT22;28397;44.552;-0.848;2023-12-07T15:06:22;10.60;99.90
42743;DHT22;28397;44.552;-0.848;2023-12-07T15:08:50;10.60;99.90
42743;DHT22;28397;44.552;-0.848;2023-12-07T15:11:15;10.60;99.90
42743;DHT22;28397;44.552;-0.848;2023-12-07T15:13:42;10.50;99.90
42743;DHT22;28397;44.552;-0.848;2023-12-07T15:16:08;10.60;99.90
42743;DHT22;28397;44.552;-0.848;2023-12-07T15:18:34;10.60;99.90
42743;DHT22;28397;44.552;-0.848;2023-12-07T15:21:04;10.60;99.90
42743;DHT22;28397;44.552;-0.848;2023-12-07T15:23:31;10.60;99.90
42743;DHT22;28397;44.552;-0.848;2023-12-07T15:25:58;10.60;99.90
42743;DHT22;28397;44.552;-0.848;2023-12-07T15:28:24;10.60;99.90
42743;DHT22;28397;44.552;-0.848;2023-12-07T15:30:49;10.60;99.90
42743;DHT22;28397;44.552;-0.848;2023-12-07T15:33:15;10.70;99.90